Time;durP1;ratioP1;P1;durP2;ratioP2;P2;SDS_P1;SDS_P2;PMS_P1;PMS_P2;Temp;Humidity;BMP_temperature;BMP_pressure;BME280_temperature;BME280_humidity;BME280_pressure;Samples;Min_cycle;Max_cycle;Signal;HPM_P1;HPM_P2
2023/08/06 00:01:46;;;;;;;6.57;4.93;;;;;;;14.22;100.00;100186.97;5030736;28;20091;-63
2023/08/06 00:04:12;;;;;;;4.32;3.88;;;;;;;14.23;100.00;100193.06;5030536;28;20473;-63
2023/08/06 00:06:37;;;;;;;4.82;4.22;;;;;;;14.22;100.00;100186.09;5030212;28;20013;-62
2023/08/06 00:09:02;;;;;;;4.65;4.25;;;;;;;14.21;100.00;100193.03;5030737;28;20038;-63
2023/08/06 00:11:28;;;;;;;5.43;4.25;;;;;;;14.21;100.00;100190.41;5030639;28;20412;-63
2023/08/06 00:13:53;;;;;;;4.40;4.00;;;;;;;14.21;100.00;100189.56;5029880;28;20029;-64
2023/08/06 00:16:18;;;;;;;4.72;4.30;;;;;;;14.21;100.00;100187.81;5030046;28;20072;-63
2023/08/06 00:18:43;;;;;;;5.28;4.13;;;;;;;14.20;100.00;100180.88;5030638;28;20113;-63
2023/08/06 00:21:09;;;;;;;5.18;4.68;;;;;;;14.21;100.00;100185.22;5030953;28;20020;-63
2023/08/06 00:23:34;;;;;;;6.47;4.40;;;;;;;14.21;100.00;100176.53;5030431;28;20025;-63
2023/08/06 00:25:59;;;;;;;4.13;3.72;;;;;;;14.21;100.00;100177.38;5030899;28;20028;-63
2023/08/06 00:28:25;;;;;;;4.82;3.85;;;;;;;14.21;100.00;100176.53;5031128;28;20026;-63
2023/08/06 00:30:56;;;;;;;6.72;4.40;;;;;;;14.21;100.00;100181.75;5030411;28;20438;-64
2023/08/06 00:33:24;;;;;;;4.30;3.90;;;;;;;14.23;100.00;100180.03;5030009;28;20021;-63
2023/08/06 00:35:50;;;;;;;4.70;4.30;;;;;;;14.22;100.00;100180.88;5030651;28;20478;-64
2023/08/06 00:38:16;;;;;;;6.45;4.30;;;;;;;14.21;100.00;100173.94;5043361;28;20052;-63
2023/08/06 00:40:41;;;;;;;5.85;4.47;;;;;;;14.20;100.00;100169.56;5042852;28;20021;-63
2023/08/06 00:43:07;;;;;;;5.70;4.22;;;;;;;14.19;100.00;100175.66;5030601;28;20021;-64
2023/08/06 00:45:37;;;;;;;5.20;3.80;;;;;;;14.17;100.00;100170.44;5029843;28;20032;-63
2023/08/06 00:48:04;;;;;;;4.43;3.33;;;;;;;14.17;100.00;100173.03;5030070;28;20032;-63
2023/08/06 00:50:30;;;;;;;6.00;3.95;;;;;;;14.17;100.00;100173.03;5029127;28;20017;-63
2023/08/06 00:52:55;;;;;;;9.77;3.85;;;;;;;14.17;100.00;100163.47;5029692;28;20028;-63
2023/08/06 00:55:21;;;;;;;6.00;4.20;;;;;;;14.16;100.00;100166.94;5029821;28;20041;-63
2023/08/06 00:57:46;;;;;;;4.85;3.72;;;;;;;14.16;100.00;100169.56;5028788;28;20060;-63
2023/08/06 01:00:12;;;;;;;3.63;3.33;;;;;;;14.15;100.00;100167.81;5029113;28;20116;-64
2023/08/06 01:02:37;;;;;;;4.57;3.80;;;;;;;14.14;100.00;100171.28;5029790;28;20036;-64
2023/08/06 01:05:03;;;;;;;5.07;3.45;;;;;;;14.15;100.00;100172.16;5030077;28;20477;-63
2023/08/06 01:08:04;;;;;;;4.82;3.40;;;;;;;14.12;100.00;100167.78;5029873;28;20087;-63
2023/08/06 01:10:51;;;;;;;4.25;3.22;;;;;;;14.12;100.00;100167.78;5029525;28;20037;-63
2023/08/06 01:13:46;;;;;;;5.43;3.90;;;;;;;14.09;100.00;100167.78;5028938;28;20033;-63
2023/08/06 01:16:13;;;;;;;4.97;4.05;;;;;;;14.10;100.00;100158.22;5029168;28;20523;-63
2023/08/06 01:18:39;;;;;;;3.40;3.05;;;;;;;14.10;100.00;100153.91;5028251;28;20029;-63
2023/08/06 01:21:04;;;;;;;4.25;3.70;;;;;;;14.10;100.00;100163.44;5029091;28;20386;-62
2023/08/06 01:23:30;;;;;;;3.90;3.50;;;;;;;14.10;100.00;100161.72;5029527;28;20056;-63
2023/08/06 01:26:29;;;;;;;6.28;3.78;;;;;;;14.09;100.00;100162.56;5042529;28;20033;-64
2023/08/06 01:29:03;;;;;;;4.13;3.20;;;;;;;14.07;100.00;100159.06;5024702;28;20621;-64
2023/08/06 01:31:36;;;;;;;5.78;3.58;;;;;;;14.09;100.00;100162.56;5040241;28;20029;-63
2023/08/06 01:34:04;;;;;;;5.40;3.67;;;;;;;14.08;100.00;100159.94;5047645;28;20489;-64
2023/08/06 01:36:30;;;;;;;4.50;3.65;;;;;;;14.06;100.00;100162.56;5035856;28;20366;-63
2023/08/06 01:38:57;;;;;;;4.65;3.70;;;;;;;14.03;100.00;100163.38;5046850;28;20044;-63
2023/08/06 01:41:22;;;;;;;4.80;3.47;;;;;;;14.02;100.00;100160.78;5048772;28;20039;-63
2023/08/06 01:43:47;;;;;;;4.53;3.60;;;;;;;14.02;100.00;100166.88;5047826;28;20037;-64
2023/08/06 01:46:13;;;;;;;3.35;3.05;;;;;;;14.02;100.00;100161.66;5048508;28;20033;-64
2023/08/06 01:48:38;;;;;;;9.05;4.10;;;;;;;14.02;100.00;100166.00;5046615;28;20036;-64
2023/08/06 01:51:06;;;;;;;5.07;3.70;;;;;;;14.02;100.00;100163.38;5036834;28;20057;-63
2023/08/06 01:53:32;;;;;;;5.50;3.95;;;;;;;14.01;100.00;100161.66;5028271;28;20033;-63
2023/08/06 01:55:57;;;;;;;5.45;3.28;;;;;;;14.01;100.00;100159.03;5028249;28;20571;-63
2023/08/06 01:58:23;;;;;;;3.42;3.13;;;;;;;14.00;100.00;100162.50;5028120;28;20024;-63
2023/08/06 02:00:48;;;;;;;3.75;3.28;;;;;;;13.98;100.00;100159.88;5028921;28;20029;-64
2023/08/06 02:03:13;;;;;;;4.97;3.28;;;;;;;13.98;100.00;100161.59;5029018;28;20112;-63
2023/08/06 02:05:40;;;;;;;5.97;3.60;;;;;;;13.98;100.00;100166.81;5028478;28;20105;-63
2023/08/06 02:08:05;;;;;;;5.38;3.22;;;;;;;13.98;100.00;100169.41;5032703;28;20024;-63
2023/08/06 02:10:30;;;;;;;4.68;3.47;;;;;;;13.94;100.00;100163.34;5035677;28;20102;-63
2023/08/06 02:12:55;;;;;;;4.90;3.47;;;;;;;13.94;100.00;100158.13;5027437;28;20470;-63
2023/08/06 02:15:21;;;;;;;3.65;3.30;;;;;;;13.95;100.00;100159.88;5028332;28;20055;-63
2023/08/06 02:17:46;;;;;;;5.32;3.65;;;;;;;13.95;100.00;100164.19;5041121;28;20429;-63
2023/08/06 02:20:11;;;;;;;4.85;3.30;;;;;;;13.93;100.00;100159.88;5028644;28;20035;-63
2023/08/06 02:22:37;;;;;;;4.10;3.08;;;;;;;13.93;100.00;100162.47;5027851;28;20029;-64
2023/08/06 02:25:02;;;;;;;3.88;3.17;;;;;;;13.92;100.00;100160.69;5028347;28;20041;-63
2023/08/06 02:27:27;;;;;;;6.43;3.17;;;;;;;13.94;100.00;100158.13;5027922;28;20033;-63
2023/08/06 02:29:53;;;;;;;3.38;3.08;;;;;;;13.92;100.00;100158.09;5027987;28;20492;-63
2023/08/06 02:32:18;;;;;;;3.70;3.28;;;;;;;13.96;100.00;100160.75;5031830;28;20028;-63
2023/08/06 02:34:43;;;;;;;6.32;4.07;;;;;;;13.95;100.00;100159.88;5047312;28;20143;-63
2023/08/06 02:37:09;;;;;;;3.95;3.35;;;;;;;13.96;100.00;100160.75;5046589;28;20044;-63
2023/08/06 02:39:35;;;;;;;4.65;2.97;;;;;;;13.96;100.00;100155.53;5047578;28;20469;-63
2023/08/06 02:42:00;;;;;;;3.45;3.15;;;;;;;13.99;100.00;100152.94;5033992;28;20025;-64
2023/08/06 02:44:29;;;;;;;4.68;3.40;;;;;;;13.99;100.00;100155.56;5036808;28;20037;-63
2023/08/06 02:46:54;;;;;;;4.78;2.97;;;;;;;13.99;100.00;100155.56;5027774;28;20090;-63
2023/08/06 02:49:19;;;;;;;7.15;3.03;;;;;;;14.00;100.00;100152.06;5026855;28;20037;-63
2023/08/06 02:51:45;;;;;;;6.68;3.10;;;;;;;14.01;100.00;100148.63;5027754;28;20022;-63
2023/08/06 02:54:10;;;;;;;5.20;3.15;;;;;;;14.00;100.00;100141.66;5027414;28;20025;-62
2023/08/06 02:56:36;;;;;;;4.28;3.05;;;;;;;14.00;100.00;100150.34;5027532;28;20017;-63
2023/08/06 02:59:01;;;;;;;4.78;3.63;;;;;;;14.01;100.00;100144.25;5028195;28;20021;-63
2023/08/06 03:01:28;;;;;;;4.72;3.22;;;;;;;14.03;100.00;100141.69;5027597;28;20101;-63
2023/08/06 03:03:53;;;;;;;6.85;3.67;;;;;;;14.03;100.00;100142.53;5038449;28;20029;-63
2023/08/06 03:06:18;;;;;;;5.53;3.13;;;;;;;14.03;100.00;100146.91;5030521;28;20027;-64
2023/08/06 03:08:44;;;;;;;4.78;3.38;;;;;;;14.02;100.00;100150.34;5028287;28;20520;-63
2023/08/06 03:11:09;;;;;;;8.00;3.38;;;;;;;14.02;100.00;100139.94;5027617;28;20018;-63
2023/08/06 03:13:34;;;;;;;3.80;2.88;;;;;;;14.01;100.00;100146.03;5027476;28;20033;-64
2023/08/06 03:15:59;;;;;;;6.22;2.78;;;;;;;14.02;100.00;100150.34;5027867;28;20502;-63
2023/08/06 03:18:28;;;;;;;3.65;3.10;;;;;;;14.03;100.00;100149.50;5027961;28;20026;-63
2023/08/06 03:20:54;;;;;;;5.55;3.22;;;;;;;14.01;100.00;100153.84;5027875;28;20029;-63
2023/08/06 03:23:19;;;;;;;5.60;3.58;;;;;;;14.02;100.00;100150.34;5026719;28;20029;-63
2023/08/06 03:25:46;;;;;;;6.53;3.67;;;;;;;14.01;100.00;100146.88;5028500;28;20298;-63
2023/08/06 03:28:11;;;;;;;5.25;4.30;;;;;;;14.01;100.00;100154.69;5028090;28;20051;-63
2023/08/06 03:30:37;;;;;;;4.65;3.78;;;;;;;14.02;100.00;100148.63;5027773;28;20469;-64
2023/08/06 03:33:02;;;;;;;6.68;4.45;;;;;;;14.03;100.00;100152.13;5027676;28;20018;-63
2023/08/06 03:35:27;;;;;;;7.50;5.57;;;;;;;14.02;100.00;100150.34;5027680;28;20432;-63
2023/08/06 03:37:53;;;;;;;6.00;4.43;;;;;;;14.02;100.00;100151.25;5027487;28;20032;-63
2023/08/06 03:40:18;;;;;;;7.68;4.95;;;;;;;14.03;100.00;100150.38;5027325;28;20389;-63
2023/08/06 03:42:43;;;;;;;5.85;4.40;;;;;;;14.05;100.00;100152.97;5027817;28;20029;-63
2023/08/06 03:45:09;;;;;;;6.95;5.30;;;;;;;14.07;100.00;100151.25;5043444;28;20060;-63
2023/08/06 03:47:34;;;;;;;7.18;5.30;;;;;;;14.07;100.00;100146.03;5046798;28;20497;-63
2023/08/06 03:50:00;;;;;;;5.28;4.78;;;;;;;14.09;100.00;100152.13;5030649;28;20039;-63
2023/08/06 03:52:25;;;;;;;5.85;5.07;;;;;;;14.09;100.00;100151.25;5027182;28;20056;-63
2023/08/06 03:54:50;;;;;;;6.97;4.90;;;;;;;14.09;100.00;100157.34;5030297;28;20120;-63
2023/08/06 03:57:15;;;;;;;5.95;4.93;;;;;;;14.10;100.00;100153.91;5037207;28;20087;-63
2023/08/06 03:59:41;;;;;;;5.88;4.70;;;;;;;14.12;100.00;100159.97;5025869;28;20462;-63
2023/08/06 04:02:06;;;;;;;5.55;4.63;;;;;;;14.12;100.00;100152.16;5027404;28;20712;-63
2023/08/06 04:04:31;;;;;;;4.97;4.53;;;;;;;14.14;100.00;100159.97;5026863;28;20044;-63
2023/08/06 04:06:57;;;;;;;6.55;4.75;;;;;;;14.13;100.00;100153.91;5026282;28;20033;-63
2023/08/06 04:09:22;;;;;;;5.85;5.35;;;;;;;14.14;100.00;100159.97;5025163;28;20036;-63
2023/08/06 04:11:47;;;;;;;6.35;5.22;;;;;;;14.14;100.00;100160.84;5025420;28;20029;-63
2023/08/06 04:14:12;;;;;;;5.50;4.72;;;;;;;14.14;100.00;100155.66;5024978;28;20104;-64
2023/08/06 04:16:38;;;;;;;6.00;5.43;;;;;;;14.15;100.00;100156.53;5032548;28;20041;-64
2023/08/06 04:19:03;;;;;;;5.15;4.65;;;;;;;14.15;100.00;100167.81;5031798;28;20397;-64
2023/08/06 04:21:28;;;;;;;5.47;4.72;;;;;;;14.15;100.00;100169.56;5026726;28;20450;-64
2023/08/06 04:23:53;;;;;;;5.85;4.40;;;;;;;14.15;100.00;100165.22;5027101;28;20102;-63
2023/08/06 04:26:19;;;;;;;5.35;4.80;;;;;;;14.16;100.00;100174.78;5026975;28;20033;-63
2023/08/06 04:28:44;;;;;;;8.13;5.07;;;;;;;14.17;100.00;100167.84;5026361;28;20030;-63
2023/08/06 04:31:10;;;;;;;6.68;5.25;;;;;;;14.17;100.00;100171.28;5026405;28;20033;-64
2023/08/06 04:33:35;;;;;;;5.50;4.93;;;;;;;14.17;100.00;100179.09;5026730;28;20083;-63
2023/08/06 04:36:00;;;;;;;6.95;5.68;;;;;;;14.19;100.00;100178.25;5029327;28;20026;-63
2023/08/06 04:38:26;;;;;;;7.28;4.82;;;;;;;14.19;100.00;100181.75;5044449;28;20048;-63
2023/08/06 04:40:52;;;;;;;6.22;5.35;;;;;;;14.19;100.00;100184.34;5042247;28;20300;-63
2023/08/06 04:43:17;;;;;;;5.78;5.18;;;;;;;14.21;100.00;100184.34;5030941;28;20543;-64
2023/08/06 04:45:49;;;;;;;6.55;5.05;;;;;;;14.21;100.00;100179.16;5038510;28;20056;-63
2023/08/06 04:48:15;;;;;;;5.93;5.40;;;;;;;14.22;100.00;100188.69;5050131;28;20025;-63
2023/08/06 04:50:47;;;;;;;6.40;5.47;;;;;;;14.23;100.00;100180.88;5049727;28;20036;-63
2023/08/06 04:53:12;;;;;;;6.05;4.90;;;;;;;14.25;100.00;100183.50;5033634;28;20482;-64
2023/08/06 04:55:38;;;;;;;5.07;4.68;;;;;;;14.28;100.00;100184.38;5030858;28;20025;-63
2023/08/06 04:58:03;;;;;;;8.43;5.53;;;;;;;14.32;100.00;100185.28;5030277;28;20037;-63
2023/08/06 05:00:29;;;;;;;7.63;4.65;;;;;;;14.35;100.00;100182.72;5039049;28;20020;-63
2023/08/06 05:02:54;;;;;;;8.82;5.55;;;;;;;14.38;100.00;100182.72;5035777;28;20501;-63
2023/08/06 05:05:19;;;;;;;8.63;5.65;;;;;;;14.41;100.00;100185.34;5041342;28;20128;-63
2023/08/06 05:07:49;;;;;;;5.88;5.28;;;;;;;14.43;100.00;100182.75;5045120;28;20368;-64
2023/08/06 05:10:15;;;;;;;5.68;5.18;;;;;;;14.45;100.00;100181.00;5049616;28;20021;-63
2023/08/06 05:12:40;;;;;;;6.05;5.20;;;;;;;14.44;100.00;100188.84;5035466;28;20033;-64
2023/08/06 05:15:05;;;;;;;7.43;5.85;;;;;;;14.43;100.00;100189.72;5049686;28;20028;-63
2023/08/06 05:17:31;;;;;;;6.93;5.57;;;;;;;14.45;100.00;100193.16;5048152;28;20183;-63
2023/08/06 05:19:56;;;;;;;5.97;5.47;;;;;;;14.47;100.00;100194.06;5040863;28;20120;-63
2023/08/06 05:22:21;;;;;;;7.05;5.70;;;;;;;14.51;100.00;100208.84;5029614;28;20021;-64
2023/08/06 05:24:47;;;;;;;6.35;4.82;;;;;;;14.56;100.00;100209.75;5030366;28;20374;-63
2023/08/06 05:27:12;;;;;;;8.82;5.95;;;;;;;14.61;100.00;100213.25;5029804;28;20371;-63
2023/08/06 05:29:37;;;;;;;5.75;5.07;;;;;;;14.68;100.00;100215.91;5038731;28;20051;-63
2023/08/06 05:32:03;;;;;;;5.97;4.63;;;;;;;14.71;100.00;100213.31;5047695;28;20060;-63
2023/08/06 05:34:28;;;;;;;5.88;5.22;;;;;;;14.76;100.00;100220.28;5048698;28;20078;-63
2023/08/06 05:36:54;;;;;;;5.85;5.07;;;;;;;14.79;100.00;100219.41;5047815;28;20025;-63
2023/08/06 05:39:19;;;;;;;7.13;4.90;;;;;;;14.85;100.00;100229.03;5040560;28;20029;-63
2023/08/06 05:41:45;;;;;;;6.55;5.65;;;;;;;14.89;100.00;100236.03;5029834;28;20021;-64
2023/08/06 05:44:10;;;;;;;6.40;5.15;;;;;;;14.93;100.00;100239.53;5029886;28;20026;-63
2023/08/06 05:46:36;;;;;;;5.88;5.20;;;;;;;14.98;100.00;100248.25;5031567;28;20025;-63
2023/08/06 05:49:01;;;;;;;7.60;5.10;;;;;;;15.04;100.00;100243.03;5032007;28;20029;-64
2023/08/06 05:51:27;;;;;;;6.07;5.47;;;;;;;15.08;100.00;100250.00;5028697;28;20513;-63
2023/08/06 05:53:52;;;;;;;6.13;5.18;;;;;;;15.12;100.00;100245.69;5029169;28;20021;-63
2023/08/06 05:56:17;;;;;;;5.13;4.63;;;;;;;15.17;100.00;100248.28;5027986;28;20023;-64
2023/08/06 05:58:43;;;;;;;5.75;4.85;;;;;;;15.21;100.00;100250.06;5031283;28;20032;-63
2023/08/06 06:01:08;;;;;;;6.50;4.22;;;;;;;15.24;100.00;100257.88;5028252;28;20025;-63
2023/08/06 06:03:33;;;;;;;7.30;5.15;;;;;;;15.29;100.00;100263.16;5041999;28;20583;-63
2023/08/06 06:06:01;;;;;;;4.85;4.28;;;;;;;15.33;100.00;100262.25;5039511;28;20033;-64
2023/08/06 06:08:26;;;;;;;6.18;3.80;;;;;;;15.36;100.00;100270.97;5042420;28;20536;-64
2023/08/06 06:10:51;;;;;;;5.05;3.58;;;;;;;15.38;100.00;100267.53;5026809;28;20135;-64
2023/08/06 06:13:17;;;;;;;4.38;3.47;;;;;;;15.40;100.00;100273.63;5044371;28;20036;-63
2023/08/06 06:15:42;;;;;;;3.72;3.42;;;;;;;15.40;100.00;100271.84;5039647;28;20067;-64
2023/08/06 06:18:07;;;;;;;4.78;3.28;;;;;;;15.41;100.00;100281.44;5039849;28;20052;-63
2023/08/06 06:20:33;;;;;;;4.95;4.05;;;;;;;15.42;100.00;100280.56;5037106;28;20399;-63
2023/08/06 06:22:59;;;;;;;5.55;4.28;;;;;;;15.46;100.00;100291.91;5044932;28;20530;-63
2023/08/06 06:25:24;;;;;;;6.85;4.15;;;;;;;15.46;100.00;100286.69;5038731;28;20591;-63
2023/08/06 06:27:49;;;;;;;5.47;4.40;;;;;;;15.46;100.00;100290.16;5040740;28;20075;-63
2023/08/06 06:30:14;;;;;;;5.03;4.50;;;;;;;15.47;100.00;100293.66;5040335;28;20112;-63
2023/08/06 06:32:40;;;;;;;7.78;4.75;;;;;;;15.46;100.00;100298.00;5045169;28;20825;-63
2023/08/06 06:35:06;;;;;;;7.07;5.38;;;;;;;15.46;100.00;100303.22;5038090;28;20024;-63
2023/08/06 06:37:31;;;;;;;5.88;4.75;;;;;;;15.42;100.00;100309.28;5042579;28;20443;-64
2023/08/06 06:39:57;;;;;;;6.47;4.53;;;;;;;15.42;100.00;100316.25;5043213;28;20403;-63
2023/08/06 06:42:22;;;;;;;7.35;5.43;;;;;;;15.43;100.00;100315.38;5044889;28;20041;-63
2023/08/06 06:44:48;;;;;;;6.30;5.03;;;;;;;15.43;100.00;100323.22;5044377;28;20024;-63
2023/08/06 06:47:13;;;;;;;8.05;6.05;;;;;;;15.42;100.00;100321.47;5039153;28;20032;-63
2023/08/06 06:49:39;;;;;;;7.07;5.57;;;;;;;15.39;100.00;100316.22;5035328;28;20060;-63
2023/08/06 06:52:04;;;;;;;6.80;5.45;;;;;;;15.34;100.00;100321.44;5027535;28;20044;-63
2023/08/06 06:54:30;;;;;;;8.93;6.05;;;;;;;15.30;100.00;100325.78;5027677;28;20397;-63
2023/08/06 06:56:55;;;;;;;8.73;5.30;;;;;;;15.27;100.00;100325.78;5027589;28;20033;-63
2023/08/06 06:59:20;;;;;;;6.00;4.97;;;;;;;15.24;100.00;100320.53;5026906;28;20063;-63
2023/08/06 07:01:46;;;;;;;6.60;5.00;;;;;;;15.18;100.00;100323.97;5038623;28;20025;-64
2023/08/06 07:04:11;;;;;;;5.60;5.07;;;;;;;15.16;100.00;100330.06;5027960;28;20543;-63
2023/08/06 07:06:36;;;;;;;5.57;4.95;;;;;;;15.12;100.00;100337.88;5026991;28;20028;-64
2023/08/06 07:09:02;;;;;;;3.70;2.60;;;;;;;15.08;100.00;100341.34;5028223;28;20021;-64
2023/08/06 07:11:27;;;;;;;2.40;1.17;;;;;;;14.93;100.00;100341.25;5034309;28;20493;-63
2023/08/06 07:13:58;;;;;;;1.10;1.00;;;;;;;14.86;100.00;100343.81;5033540;28;20544;-63
2023/08/06 07:16:24;;;;;;;3.45;1.10;;;;;;;14.81;100.00;100344.59;5033906;28;20163;-63
2023/08/06 07:18:52;;;;;;;0.98;0.98;;;;;;;14.77;100.00;100354.16;5027938;28;20128;-63
2023/08/06 07:21:18;;;;;;;1.30;1.20;;;;;;;14.70;100.00;100352.34;5036852;28;20048;-64
2023/08/06 07:23:43;;;;;;;0.88;0.88;;;;;;;14.65;100.00;100355.81;5037996;28;20037;-63
2023/08/06 07:26:09;;;;;;;0.70;0.70;;;;;;;14.60;100.00;100357.53;5043370;28;20079;-64
2023/08/06 07:28:34;;;;;;;0.60;0.60;;;;;;;14.55;100.00;100367.06;5033437;28;20077;-64
2023/08/06 07:30:59;;;;;;;2.05;0.52;;;;;;;14.49;100.00;100370.47;5046773;28;20112;-63
2023/08/06 07:33:25;;;;;;;0.60;0.50;;;;;;;14.48;100.00;100366.09;5026901;28;20025;-63
2023/08/06 07:35:50;;;;;;;0.70;0.70;;;;;;;14.45;100.00;100375.63;5025334;28;20139;-63
2023/08/06 07:38:15;;;;;;;0.63;0.63;;;;;;;14.41;100.00;100388.66;5038835;28;20036;-63
2023/08/06 07:40:40;;;;;;;0.95;0.95;;;;;;;14.41;100.00;100388.66;5025549;28;20020;-63
2023/08/06 07:43:06;;;;;;;0.73;0.73;;;;;;;14.40;100.00;100393.84;5025462;28;20025;-64
2023/08/06 07:45:35;;;;;;;0.70;0.70;;;;;;;14.38;100.00;100399.06;5025428;28;20021;-64
2023/08/06 07:48:01;;;;;;;1.40;1.30;;;;;;;14.36;100.00;100400.75;5026578;28;20492;-64
2023/08/06 07:50:26;;;;;;;1.77;1.67;;;;;;;14.33;100.00;100405.97;5026751;28;20060;-63
2023/08/06 07:52:52;;;;;;;2.15;1.88;;;;;;;14.33;100.00;100416.38;5026982;28;20033;-63
2023/08/06 07:55:17;;;;;;;1.80;1.70;;;;;;;14.28;100.00;100418.91;5033426;28;20464;-63
2023/08/06 07:57:42;;;;;;;2.20;1.98;;;;;;;14.24;100.00;100418.88;5033979;28;20041;-63
2023/08/06 08:00:09;;;;;;;3.33;2.65;;;;;;;14.22;100.00;100424.09;5027286;28;20038;-64
2023/08/06 08:02:34;;;;;;;4.28;2.83;;;;;;;14.18;100.00;100419.69;5027200;28;20013;-63
2023/08/06 08:05:00;;;;;;;4.20;3.35;;;;;;;14.15;100.00;100420.56;5027459;28;20029;-63
2023/08/06 08:07:27;;;;;;;2.90;2.63;;;;;;;14.17;100.00;100421.41;5027058;28;20077;-63
2023/08/06 08:09:52;;;;;;;3.70;3.40;;;;;;;14.14;100.00;100417.91;5028033;28;20033;-63
2023/08/06 08:12:18;;;;;;;4.25;3.78;;;;;;;14.12;100.00;100430.91;5030648;28;20040;-64
2023/08/06 08:14:45;;;;;;;5.35;3.63;;;;;;;14.12;100.00;100427.47;5030015;28;20029;-63
2023/08/06 08:17:11;;;;;;;3.78;3.25;;;;;;;14.08;100.00;100431.75;5031079;28;20067;-63
2023/08/06 08:19:36;;;;;;;3.72;3.42;;;;;;;14.07;100.00;100430.00;5030447;28;20025;-63
2023/08/06 08:22:01;;;;;;;5.95;3.88;;;;;;;14.06;100.00;100425.66;5028720;28;20049;-64
2023/08/06 08:24:27;;;;;;;6.07;2.95;;;;;;;14.04;100.00;100428.25;5031179;28;20025;-63
2023/08/06 08:26:53;;;;;;;3.65;2.78;;;;;;;14.05;100.00;100436.91;5031450;28;20477;-63
2023/08/06 08:29:21;;;;;;;3.17;2.60;;;;;;;14.07;100.00;100436.97;5030108;28;20021;-63
2023/08/06 08:31:48;;;;;;;4.35;2.92;;;;;;;14.07;100.00;100434.34;5031813;28;20021;-64
2023/08/06 08:34:14;;;;;;;4.25;2.72;;;;;;;14.04;100.00;100437.78;5030931;28;20166;-64
2023/08/06 08:36:40;;;;;;;3.78;2.40;;;;;;;14.08;100.00;100438.69;5031093;28;20025;-63
2023/08/06 08:39:05;;;;;;;4.60;2.70;;;;;;;14.09;100.00;100443.03;5043126;28;20029;-64
2023/08/06 08:41:31;;;;;;;4.07;2.83;;;;;;;14.11;100.00;100447.41;5030282;28;20021;-64
2023/08/06 08:43:59;;;;;;;5.10;3.33;;;;;;;14.12;100.00;100450.91;5048571;28;20029;-63
2023/08/06 08:46:27;;;;;;;2.92;2.42;;;;;;;14.13;100.00;100445.72;5035378;28;20245;-63
2023/08/06 08:48:54;;;;;;;3.83;2.05;;;;;;;14.14;100.00;100456.97;5030652;28;20025;-63
2023/08/06 08:51:20;;;;;;;3.05;2.42;;;;;;;14.11;100.00;100457.84;5030889;28;20029;-63
2023/08/06 08:53:47;;;;;;;2.85;2.35;;;;;;;14.12;100.00;100459.56;5029751;28;20532;-64
2023/08/06 08:56:14;;;;;;;5.85;3.22;;;;;;;14.12;100.00;100463.94;5029958;28;20028;-64
2023/08/06 08:58:39;;;;;;;2.95;2.30;;;;;;;14.11;100.00;100468.25;5030256;28;20021;-63
2023/08/06 09:01:06;;;;;;;4.78;2.25;;;;;;;14.12;100.00;100472.59;5030215;28;20067;-63
2023/08/06 09:03:32;;;;;;;4.60;2.20;;;;;;;14.13;100.00;100463.94;5030114;28;20025;-64
2023/08/06 09:05:58;;;;;;;4.85;2.28;;;;;;;14.17;100.00;100475.28;5029607;28;20026;-63
2023/08/06 09:08:30;;;;;;;5.20;2.40;;;;;;;14.17;100.00;100489.16;5029941;28;20013;-64
2023/08/06 09:10:56;;;;;;;5.95;2.38;;;;;;;14.18;100.00;100490.03;5029811;28;20025;-63
2023/08/06 09:13:23;;;;;;;4.45;2.40;;;;;;;14.20;100.00;100490.06;5029835;28;20527;-64
2023/08/06 09:15:50;;;;;;;6.47;2.67;;;;;;;14.21;100.00;100492.69;5042325;28;20079;-63
2023/08/06 09:18:24;;;;;;;5.32;2.35;;;;;;;14.22;100.00;100503.97;5029446;28;20509;-63
2023/08/06 09:20:50;;;;;;;5.97;2.60;;;;;;;14.22;100.00;100506.59;5029081;28;20026;-63
2023/08/06 09:23:15;;;;;;;3.50;2.45;;;;;;;14.22;100.00;100507.47;5029889;28;20025;-63
2023/08/06 09:25:41;;;;;;;5.72;2.42;;;;;;;14.22;100.00;100511.81;5029669;28;20100;-63
2023/08/06 09:28:06;;;;;;;3.42;2.47;;;;;;;14.21;100.00;100510.91;5029620;28;20108;-63
2023/08/06 09:30:38;;;;;;;9.38;3.42;;;;;;;14.22;100.00;100522.22;5029174;28;20136;-63
2023/08/06 09:33:10;;;;;;;6.65;2.88;;;;;;;14.23;100.00;100524.00;5029385;28;20373;-64
2023/08/06 09:35:35;;;;;;;5.95;3.08;;;;;;;14.20;100.00;100516.13;5029218;28;20051;-63
2023/08/06 09:38:08;;;;;;;4.40;2.92;;;;;;;14.21;100.00;100523.09;5040673;28;20021;-63
2023/08/06 09:40:34;;;;;;;4.68;2.72;;;;;;;14.21;100.00;100523.09;5042847;28;20029;-63
2023/08/06 09:43:00;;;;;;;5.85;2.80;;;;;;;14.22;100.00;100524.81;5041445;28;20358;-63
2023/08/06 09:45:30;;;;;;;4.20;2.97;;;;;;;14.21;100.00;100525.69;5030021;28;20017;-63
2023/08/06 09:47:56;;;;;;;4.68;3.10;;;;;;;14.22;100.00;100532.66;5029135;28;20420;-63
2023/08/06 09:50:21;;;;;;;4.80;2.78;;;;;;;14.23;100.00;100534.41;5028786;28;20022;-63
2023/08/06 09:52:48;;;;;;;7.57;2.50;;;;;;;14.25;100.00;100537.88;5028991;28;20429;-63
2023/08/06 09:55:14;;;;;;;5.20;2.42;;;;;;;14.23;100.00;100539.63;5029423;28;20024;-63
2023/08/06 09:57:43;;;;;;;5.22;2.72;;;;;;;14.26;100.00;100550.09;5029111;28;20362;-63
2023/08/06 10:00:12;;;;;;;6.95;3.13;;;;;;;14.25;100.00;100543.09;5035236;28;20135;-63
2023/08/06 10:02:39;;;;;;;4.78;2.85;;;;;;;14.24;100.00;100554.41;5048865;28;20017;-64
2023/08/06 10:05:05;;;;;;;7.32;2.78;;;;;;;14.23;100.00;100555.25;5040911;28;20029;-64
2023/08/06 10:07:30;;;;;;;5.80;2.72;;;;;;;14.25;100.00;100558.72;5029747;28;20029;-63
2023/08/06 10:09:56;;;;;;;4.72;2.80;;;;;;;14.25;100.00;100554.41;5048349;28;20028;-63
2023/08/06 10:12:24;;;;;;;5.45;3.22;;;;;;;14.26;100.00;100557.91;5034678;28;20481;-63
2023/08/06 10:14:53;;;;;;;4.50;2.60;;;;;;;14.25;100.00;100561.34;5040286;28;20048;-63
2023/08/06 10:17:20;;;;;;;5.03;3.22;;;;;;;14.25;100.00;100563.94;5029953;28;20049;-63
2023/08/06 10:19:47;;;;;;;5.35;2.97;;;;;;;14.25;100.00;100562.22;5048101;28;20104;-64
2023/08/06 10:22:15;;;;;;;3.50;2.70;;;;;;;14.28;100.00;100564.00;5033004;28;20017;-64
2023/08/06 10:25:04;;;;;;;4.28;2.90;;;;;;;14.27;100.00;100557.03;5028873;28;20102;-63
2023/08/06 10:27:32;;;;;;;4.78;2.60;;;;;;;14.28;100.00;100564.88;5028128;28;20757;-63
2023/08/06 10:30:21;;;;;;;5.40;2.75;;;;;;;14.32;100.00;100564.91;5028952;28;20032;-63
2023/08/06 10:32:50;;;;;;;5.10;2.92;;;;;;;14.35;100.00;100559.75;5036056;28;20025;-63
2023/08/06 10:35:49;;;;;;;4.47;2.95;;;;;;;14.38;100.00;100571.06;5032335;28;20029;-64
2023/08/06 10:38:16;;;;;;;4.57;2.65;;;;;;;14.39;100.00;100567.59;5028001;28;20057;-63
2023/08/06 10:40:54;;;;;;;4.38;3.13;;;;;;;14.41;100.00;100565.00;5028611;28;20027;-63
2023/08/06 10:43:32;;;;;;;3.83;2.83;;;;;;;14.45;100.00;100571.13;5027812;28;20014;-63
2023/08/06 10:45:59;;;;;;;6.07;2.80;;;;;;;14.48;100.00;100579.88;5028340;28;20021;-63
2023/08/06 10:48:39;;;;;;;6.45;4.10;;;;;;;14.50;100.00;100570.34;5027825;28;20033;-64
2023/08/06 10:51:12;;;;;;;5.68;3.38;;;;;;;14.51;100.00;100576.44;5028202;28;20033;-63
2023/08/06 10:53:38;;;;;;;4.72;3.67;;;;;;;14.55;100.00;100577.34;5027843;28;20033;-63
2023/08/06 10:56:17;;;;;;;4.32;3.60;;;;;;;14.57;100.00;100586.06;5027108;28;20082;-63
2023/08/06 10:58:44;;;;;;;4.85;3.65;;;;;;;14.59;100.00;100582.59;5027840;28;20037;-63
2023/08/06 11:01:10;;;;;;;5.30;3.70;;;;;;;14.62;100.00;100589.59;5027831;28;20029;-63
2023/08/06 11:03:36;;;;;;;6.40;3.85;;;;;;;14.64;100.00;100593.94;5027682;28;20528;-63
2023/08/06 11:06:02;;;;;;;4.97;3.40;;;;;;;14.65;100.00;100595.72;5027508;28;20104;-63
2023/08/06 11:08:29;;;;;;;4.57;2.75;;;;;;;14.68;100.00;100588.78;5027966;28;20104;-63
2023/08/06 11:10:55;;;;;;;4.63;2.65;;;;;;;14.63;100.00;100594.81;5040346;28;20055;-63
2023/08/06 11:13:21;;;;;;;4.38;2.97;;;;;;;14.60;100.00;100592.19;5036474;28;20037;-64
2023/08/06 11:15:46;;;;;;;4.95;2.80;;;;;;;14.60;100.00;100597.41;5033704;28;20532;-64